Time;durP1;ratioP1;P1;durP2;ratioP2;P2;SDS_P1;SDS_P2;PMS_P1;PMS_P2;Temp;Humidity;BMP_temperature;BMP_pressure;BME280_temperature;BME280_humidity;BME280_pressure;Samples;Min_cycle;Max_cycle;Signal;HPM_P1;HPM_P2
2022/02/18 00:00:16;;;;;;;;;;;;;;;;;;2098811;28;19940;-49
2022/02/18 00:01:17;;;;;;;;;;;;;;;;;;2097583;28;19968;-48
2022/02/18 00:02:18;;;;;;;;;;;;;;;;;;2097461;28;19925;-48
2022/02/18 00:03:19;;;;;;;;;;;;;;;;;;2098670;28;19974;-48
2022/02/18 00:04:20;;;;;;;;;;;;;;;;;;2096700;28;19924;-49
2022/02/18 00:05:22;;;;;;;;;;;;;;;;;;2098682;28;19931;-48
2022/02/18 00:06:23;;;;;;;;;;;;;;;;;;2098824;28;20020;-48
2022/02/18 00:07:23;;;;;;;;;;;;;;;;;;2095220;28;20297;-48
2022/02/18 00:08:24;;;;;;;;;;;;;;;;;;2098765;28;19924;-48
2022/02/18 00:09:25;;;;;;;;;;;;;;;;;;2098160;28;19932;-52
2022/02/18 00:10:26;;;;;;;;;;;;;;;;;;2095595;28;19932;-51
2022/02/18 00:11:27;;;;;;;;;;;;;;;;;;2098722;28;19925;-50
2022/02/18 00:12:28;;;;;;;;;;;;;;;;;;2097899;28;20348;-51
2022/02/18 00:13:28;;;;;;;;;;;;;;;;;;2096090;28;19960;-51
2022/02/18 00:14:29;;;;;;;;;;;;;;;;;;2098962;28;20003;-49
2022/02/18 00:15:30;;;;;;;;;;;;;;;;;;2097674;28;19935;-49
2022/02/18 00:16:31;;;;;;;;;;;;;;;;;;2090982;28;19925;-52
2022/02/18 00:17:32;;;;;;;;;;;;;;;;;;2090903;28;19940;-48
2022/02/18 00:18:34;;;;;;;;;;;;;;;;;;2094013;28;20015;-47
2022/02/18 00:19:35;;;;;;;;;;;;;;;;;;2090223;28;19994;-48
2022/02/18 00:20:36;;;;;;;;;;;;;;;;;;2090385;28;19931;-47
2022/02/18 00:21:36;;;;;;;;;;;;;;;;;;2095374;28;19924;-47
2022/02/18 00:22:37;;;;;;;;;;;;;;;;;;2098651;28;19969;-47
2022/02/18 00:23:39;;;;;;;;;;;;;;;;;;2098177;28;20075;-47
2022/02/18 00:24:40;;;;;;;;;;;;;;;;;;2096895;28;20429;-46
2022/02/18 00:25:40;;;;;;;;;;;;;;;;;;2098577;28;19924;-47
2022/02/18 00:26:41;;;;;;;;;;;;;;;;;;2097785;28;20305;-47
2022/02/18 00:27:42;;;;;;;;;;;;;;;;;;2097323;28;19929;-48
2022/02/18 00:28:45;;;;;;;;;;;;;;;;;;2098684;28;19925;-47
2022/02/18 00:29:51;;;;;;;;;;;;;;;;;;2096237;28;20462;-49
2022/02/18 00:30:52;;;;;;;;;;;;;;;;;;2098611;28;20007;-54
2022/02/18 00:31:53;;;;;;;;;;;;;;;;;;2098558;28;19963;-53
2022/02/18 00:32:54;;;;;;;;;;;;;;;;;;2096327;28;20380;-53
2022/02/18 00:33:54;;;;;;;;;;;;;;;;;;2098561;28;19924;-55
2022/02/18 00:34:55;;;;;;;;;;;;;;;;;;2098057;28;19932;-56
2022/02/18 00:35:57;;;;;;;;;;;;;;;;;;2096920;28;19943;-59
2022/02/18 00:36:58;;;;;;;;;;;;;;;;;;2098431;28;20409;-59
2022/02/18 00:37:59;;;;;;;;;;;;;;;;;;2097846;28;19932;-59
2022/02/18 00:39:00;;;;;;;;;;;;;;;;;;2096930;28;19946;-60
2022/02/18 00:40:02;;;;;;;;;;;;;;;;;;2098432;28;20301;-59
2022/02/18 00:41:03;;;;;;;;;;;;;;;;;;2096917;28;19946;-59
2022/02/18 00:42:04;;;;;;;;;;;;;;;;;;2098210;28;19924;-56
2022/02/18 00:43:05;;;;;;;;;;;;;;;;;;2098641;28;19960;-56
2022/02/18 00:44:05;;;;;;;;;;;;;;;;;;2096578;28;19924;-46
2022/02/18 00:45:06;;;;;;;;;;;;;;;;;;2098544;28;19925;-48
2022/02/18 00:46:07;;;;;;;;;;;;;;;;;;2098429;28;19925;-47
2022/02/18 00:47:08;;;;;;;;;;;;;;;;;;2093996;28;19933;-49
2022/02/18 00:48:09;;;;;;;;;;;;;;;;;;2098492;28;19935;-49
2022/02/18 00:49:10;;;;;;;;;;;;;;;;;;2097467;28;19925;-47
2022/02/18 00:50:11;;;;;;;;;;;;;;;;;;2096157;28;19978;-48
2022/02/18 00:51:12;;;;;;;;;;;;;;;;;;2098335;28;19947;-47
2022/02/18 00:52:15;;;;;;;;;;;;;;;;;;2097483;28;19933;-48
2022/02/18 00:53:15;;;;;;;;;;;;;;;;;;2097015;28;19971;-47
2022/02/18 00:54:16;;;;;;;;;;;;;;;;;;2098572;28;19932;-46
2022/02/18 00:55:17;;;;;;;;;;;;;;;;;;2097405;28;19924;-49
2022/02/18 00:56:18;;;;;;;;;;;;;;;;;;2089951;28;20366;-49
2022/02/18 00:57:21;;;;;;;;;;;;;;;;;;2089987;28;19983;-49
2022/02/18 00:58:23;;;;;;;;;;;;;;;;;;2094216;28;19929;-47
2022/02/18 00:59:24;;;;;;;;;;;;;;;;;;2098339;28;20508;-49
2022/02/18 01:00:25;;;;;;;;;;;;;;;;;;2098059;28;19955;-48
2022/02/18 01:01:26;;;;;;;;;;;;;;;;;;2096386;28;20024;-47
2022/02/18 01:02:27;;;;;;;;;;;;;;;;;;2098355;28;19978;-49
2022/02/18 01:03:27;;;;;;;;;;;;;;;;;;2097945;28;19924;-53
2022/02/18 01:04:28;;;;;;;;;;;;;;;;;;2095708;28;20293;-55
2022/02/18 01:05:29;;;;;;;;;;;;;;;;;;2098699;28;19982;-48
2022/02/18 01:06:30;;;;;;;;;;;;;;;;;;2094905;28;20485;-48
2022/02/18 01:07:31;;;;;;;;;;;;;;;;;;2097218;28;19935;-50
2022/02/18 01:08:32;;;;;;;;;;;;;;;;;;2098307;28;19947;-47
2022/02/18 01:09:32;;;;;;;;;;;;;;;;;;2096364;28;20027;-56
2022/02/18 01:10:33;;;;;;;;;;;;;;;;;;2098171;28;19974;-56
2022/02/18 01:11:34;;;;;;;;;;;;;;;;;;2098327;28;19968;-55
2022/02/18 01:12:37;;;;;;;;;;;;;;;;;;2096035;28;19924;-55
2022/02/18 01:13:38;;;;;;;;;;;;;;;;;;2098480;28;19925;-49
2022/02/18 01:14:39;;;;;;;;;;;;;;;;;;2097320;28;19928;-48
2022/02/18 01:15:40;;;;;;;;;;;;;;;;;;2095941;28;19925;-47
2022/02/18 01:16:41;;;;;;;;;;;;;;;;;;2098325;28;19952;-48
2022/02/18 01:17:41;;;;;;;;;;;;;;;;;;2097655;28;20111;-55
2022/02/18 01:18:42;;;;;;;;;;;;;;;;;;2096946;28;20017;-59
2022/02/18 01:19:43;;;;;;;;;;;;;;;;;;2098250;28;19969;-56
2022/02/18 01:20:44;;;;;;;;;;;;;;;;;;2094833;28;19953;-54
2022/02/18 01:21:45;;;;;;;;;;;;;;;;;;2097933;28;19986;-53
2022/02/18 01:22:46;;;;;;;;;;;;;;;;;;2098338;28;19924;-54
2022/02/18 01:23:47;;;;;;;;;;;;;;;;;;2094701;28;19925;-51
2022/02/18 01:24:48;;;;;;;;;;;;;;;;;;2098174;28;20385;-53
2022/02/18 01:25:49;;;;;;;;;;;;;;;;;;2097992;28;19931;-53
2022/02/18 01:26:50;;;;;;;;;;;;;;;;;;2096114;28;19975;-54
2022/02/18 01:27:55;;;;;;;;;;;;;;;;;;2098565;28;19931;-54
2022/02/18 01:28:56;;;;;;;;;;;;;;;;;;2096169;28;20027;-54
2022/02/18 01:29:57;;;;;;;;;;;;;;;;;;2096655;28;19931;-59
2022/02/18 01:30:58;;;;;;;;;;;;;;;;;;2098103;28;19924;-59
2022/02/18 01:32:00;;;;;;;;;;;;;;;;;;2097359;28;20324;-48
2022/02/18 01:33:01;;;;;;;;;;;;;;;;;;2097192;28;20167;-55
2022/02/18 01:34:01;;;;;;;;;;;;;;;;;;2098302;28;20300;-55
2022/02/18 01:35:02;;;;;;;;;;;;;;;;;;2093791;28;19985;-56
2022/02/18 01:36:03;;;;;;;;;;;;;;;;;;2097887;28;19932;-54
2022/02/18 01:37:04;;;;;;;;;;;;;;;;;;2098045;28;20377;-53
2022/02/18 01:38:05;;;;;;;;;;;;;;;;;;2095900;28;19924;-58
2022/02/18 01:39:06;;;;;;;;;;;;;;;;;;2098089;28;20026;-54
2022/02/18 01:40:07;;;;;;;;;;;;;;;;;;2097707;28;20016;-57
2022/02/18 01:41:09;;;;;;;;;;;;;;;;;;2096298;28;19931;-53
2022/02/18 01:42:10;;;;;;;;;;;;;;;;;;2098026;28;20368;-57
2022/02/18 01:43:11;;;;;;;;;;;;;;;;;;2097442;28;19925;-59
2022/02/18 01:44:11;;;;;;;;;;;;;;;;;;2095833;28;19955;-60
2022/02/18 01:45:13;;;;;;;;;;;;;;;;;;2098250;28;20281;-59
2022/02/18 01:46:14;;;;;;;;;;;;;;;;;;2094731;28;19929;-59
2022/02/18 01:47:15;;;;;;;;;;;;;;;;;;2097837;28;20266;-58
2022/02/18 01:48:15;;;;;;;;;;;;;;;;;;2098065;28;20345;-58
2022/02/18 01:49:16;;;;;;;;;;;;;;;;;;2094796;28;19979;-58
2022/02/18 01:50:17;;;;;;;;;;;;;;;;;;2089829;28;19968;-58
2022/02/18 01:51:18;;;;;;;;;;;;;;;;;;2089594;28;20353;-58
2022/02/18 01:52:19;;;;;;;;;;;;;;;;;;2095271;28;19932;-59
2022/02/18 01:53:20;;;;;;;;;;;;;;;;;;2098083;28;19928;-58
2022/02/18 01:54:20;;;;;;;;;;;;;;;;;;2097506;28;19964;-57
2022/02/18 01:55:21;;;;;;;;;;;;;;;;;;2096223;28;19925;-57
2022/02/18 01:56:22;;;;;;;;;;;;;;;;;;2097837;28;19928;-58
2022/02/18 01:57:23;;;;;;;;;;;;;;;;;;2097091;28;19976;-57
2022/02/18 01:58:24;;;;;;;;;;;;;;;;;;2096815;28;19929;-57
2022/02/18 01:59:26;;;;;;;;;;;;;;;;;;2098133;28;19929;-60
2022/02/18 02:00:27;;;;;;;;;;;;;;;;;;2096046;28;19928;-54
2022/02/18 02:01:28;;;;;;;;;;;;;;;;;;2097672;28;19924;-58
2022/02/18 02:02:28;;;;;;;;;;;;;;;;;;2097874;28;20332;-57
2022/02/18 02:03:29;;;;;;;;;;;;;;;;;;2093893;28;19931;-58
2022/02/18 02:04:30;;;;;;;;;;;;;;;;;;2089685;28;19932;-57
2022/02/18 02:05:32;;;;;;;;;;;;;;;;;;2089797;28;19929;-59
2022/02/18 02:06:33;;;;;;;;;;;;;;;;;;2095749;28;19963;-59
2022/02/18 02:07:34;;;;;;;;;;;;;;;;;;2097856;28;20354;-59
2022/02/18 02:08:34;;;;;;;;;;;;;;;;;;2095924;28;19975;-59
2022/02/18 02:09:35;;;;;;;;;;;;;;;;;;2096175;28;19935;-59
2022/02/18 02:10:36;;;;;;;;;;;;;;;;;;2097644;28;20011;-58
2022/02/18 02:11:37;;;;;;;;;;;;;;;;;;2096360;28;20406;-56
2022/02/18 02:12:38;;;;;;;;;;;;;;;;;;2096156;28;19932;-55
2022/02/18 02:13:39;;;;;;;;;;;;;;;;;;2098129;28;20001;-48
2022/02/18 02:14:40;;;;;;;;;;;;;;;;;;2096924;28;20015;-58
2022/02/18 02:15:41;;;;;;;;;;;;;;;;;;2097091;28;19932;-54
2022/02/18 02:16:42;;;;;;;;;;;;;;;;;;2097953;28;20432;-57
2022/02/18 02:17:43;;;;;;;;;;;;;;;;;;2095503;28;20267;-59
2022/02/18 02:18:44;;;;;;;;;;;;;;;;;;2098296;28;20019;-49
2022/02/18 02:19:45;;;;;;;;;;;;;;;;;;2097375;28;19925;-50
2022/02/18 02:20:46;;;;;;;;;;;;;;;;;;2096082;28;20258;-49
2022/02/18 02:21:47;;;;;;;;;;;;;;;;;;2097982;28;19924;-50
2022/02/18 02:22:47;;;;;;;;;;;;;;;;;;2096826;28;19932;-47
2022/02/18 02:23:52;;;;;;;;;;;;;;;;;;2095442;28;19924;-48
2022/02/18 02:24:52;;;;;;;;;;;;;;;;;;2097954;28;20020;-55
2022/02/18 02:25:53;;;;;;;;;;;;;;;;;;2096808;28;20377;-58
2022/02/18 02:26:54;;;;;;;;;;;;;;;;;;2096489;28;19931;-58
2022/02/18 02:27:55;;;;;;;;;;;;;;;;;;2098086;28;19924;-54
2022/02/18 02:28:56;;;;;;;;;;;;;;;;;;2094458;28;19925;-52
2022/02/18 02:29:57;;;;;;;;;;;;;;;;;;2097979;28;20401;-56
2022/02/18 02:30:58;;;;;;;;;;;;;;;;;;2097884;28;19959;-53
2022/02/18 02:31:58;;;;;;;;;;;;;;;;;;2093784;28;20428;-53
2022/02/18 02:33:04;;;;;;;;;;;;;;;;;;2089703;28;19925;-54
2022/02/18 02:34:04;;;;;;;;;;;;;;;;;;2088725;28;20293;-55
2022/02/18 02:35:05;;;;;;;;;;;;;;;;;;2096310;28;19931;-58
2022/02/18 02:36:06;;;;;;;;;;;;;;;;;;2097599;28;19931;-57
2022/02/18 02:37:07;;;;;;;;;;;;;;;;;;2096297;28;19971;-53
2022/02/18 02:38:08;;;;;;;;;;;;;;;;;;2096035;28;19928;-55
2022/02/18 02:39:10;;;;;;;;;;;;;;;;;;2097695;28;19924;-58
2022/02/18 02:40:13;;;;;;;;;;;;;;;;;;2094440;28;20033;-54
2022/02/18 02:41:14;;;;;;;;;;;;;;;;;;2097578;28;19996;-51
2022/02/18 02:42:15;;;;;;;;;;;;;;;;;;2097853;28;20384;-52
2022/02/18 02:43:18;;;;;;;;;;;;;;;;;;2094493;28;19931;-50
2022/02/18 02:44:19;;;;;;;;;;;;;;;;;;2098107;28;20297;-58
2022/02/18 02:45:20;;;;;;;;;;;;;;;;;;2096483;28;19924;-58
2022/02/18 02:46:21;;;;;;;;;;;;;;;;;;2095551;28;19931;-58
2022/02/18 02:47:22;;;;;;;;;;;;;;;;;;2097768;28;19928;-58
2022/02/18 02:48:23;;;;;;;;;;;;;;;;;;2097265;28;19924;-46
2022/02/18 02:49:24;;;;;;;;;;;;;;;;;;2096347;28;20404;-47
2022/02/18 02:50:24;;;;;;;;;;;;;;;;;;2098102;28;19932;-58
2022/02/18 02:51:25;;;;;;;;;;;;;;;;;;2096808;28;19936;-56
2022/02/18 02:52:26;;;;;;;;;;;;;;;;;;2089534;28;19925;-53
2022/02/18 02:53:27;;;;;;;;;;;;;;;;;;2089520;28;19968;-58
2022/02/18 02:54:28;;;;;;;;;;;;;;;;;;2093231;28;19971;-54
2022/02/18 02:55:29;;;;;;;;;;;;;;;;;;2097841;28;19932;-55
2022/02/18 02:56:30;;;;;;;;;;;;;;;;;;2097880;28;20286;-48
2022/02/18 02:57:31;;;;;;;;;;;;;;;;;;2095386;28;20331;-49
2022/02/18 02:58:32;;;;;;;;;;;;;;;;;;2097579;28;19928;-50
2022/02/18 02:59:33;;;;;;;;;;;;;;;;;;2097220;28;19947;-49
2022/02/18 03:00:34;;;;;;;;;;;;;;;;;;2095941;28;19925;-48
2022/02/18 03:01:35;;;;;;;;;;;;;;;;;;2097365;28;19947;-49
2022/02/18 03:02:36;;;;;;;;;;;;;;;;;;2096567;28;19928;-58
2022/02/18 03:03:36;;;;;;;;;;;;;;;;;;2096687;28;20011;-56
2022/02/18 03:04:37;;;;;;;;;;;;;;;;;;2097651;28;20400;-58
2022/02/18 03:05:38;;;;;;;;;;;;;;;;;;2096592;28;19952;-58
2022/02/18 03:06:39;;;;;;;;;;;;;;;;;;2090543;28;20417;-50
2022/02/18 03:07:41;;;;;;;;;;;;;;;;;;2089435;28;19987;-50
2022/02/18 03:08:42;;;;;;;;;;;;;;;;;;2093861;28;20391;-47
2022/02/18 03:09:43;;;;;;;;;;;;;;;;;;2097670;28;20418;-48
2022/02/18 03:11:14;;;;;;;;;;;;;;;;;;2097617;28;20007;-48
2022/02/18 03:12:05;;;;;;;;;;;;;;;;;;2095242;28;20420;-48
2022/02/18 03:13:06;;;;;;;;;;;;;;;;;;2097628;28;19956;-50
2022/02/18 03:14:07;;;;;;;;;;;;;;;;;;2094580;28;19959;-49
2022/02/18 03:15:07;;;;;;;;;;;;;;;;;;2097284;28;19928;-48
2022/02/18 03:16:11;;;;;;;;;;;;;;;;;;2097655;28;20011;-48
2022/02/18 03:17:12;;;;;;;;;;;;;;;;;;2095229;28;20289;-47
2022/02/18 03:18:13;;;;;;;;;;;;;;;;;;2097421;28;20023;-51
2022/02/18 03:19:14;;;;;;;;;;;;;;;;;;2097516;28;20015;-49
2022/02/18 03:20:15;;;;;;;;;;;;;;;;;;2093599;28;20528;-58
2022/02/18 03:21:16;;;;;;;;;;;;;;;;;;2097911;28;20103;-58
2022/02/18 03:22:17;;;;;;;;;;;;;;;;;;2096949;28;19946;-57
2022/02/18 03:23:18;;;;;;;;;;;;;;;;;;2097735;28;20426;-58
2022/02/18 03:24:19;;;;;;;;;;;;;;;;;;2099119;28;19971;-57
2022/02/18 03:25:20;;;;;;;;;;;;;;;;;;2098166;28;19973;-58
2022/02/18 03:26:21;;;;;;;;;;;;;;;;;;2096588;28;20437;-57
2022/02/18 03:27:22;;;;;;;;;;;;;;;;;;2099032;28;19928;-59
2022/02/18 03:28:23;;;;;;;;;;;;;;;;;;2097088;28;20310;-46
2022/02/18 03:29:25;;;;;;;;;;;;;;;;;;2098990;28;19928;-48
2022/02/18 03:30:25;;;;;;;;;;;;;;;;;;2099000;28;19963;-50
2022/02/18 03:31:26;;;;;;;;;;;;;;;;;;2096682;28;19925;-49
2022/02/18 03:32:27;;;;;;;;;;;;;;;;;;2099068;28;19931;-47
2022/02/18 03:33:28;;;;;;;;;;;;;;;;;;2098034;28;19952;-49
2022/02/18 03:34:29;;;;;;;;;;;;;;;;;;2096526;28;19955;-49
2022/02/18 03:35:30;;;;;;;;;;;;;;;;;;2099057;28;19933;-48
2022/02/18 03:36:30;;;;;;;;;;;;;;;;;;2097097;28;19951;-47
2022/02/18 03:37:31;;;;;;;;;;;;;;;;;;2096427;28;19928;-57
2022/02/18 03:38:32;;;;;;;;;;;;;;;;;;2099046;28;19929;-54
2022/02/18 03:39:33;;;;;;;;;;;;;;;;;;2095454;28;20393;-57
2022/02/18 03:40:34;;;;;;;;;;;;;;;;;;2098708;28;19924;-57
2022/02/18 03:41:35;;;;;;;;;;;;;;;;;;2098784;28;19924;-56
2022/02/18 03:42:36;;;;;;;;;;;;;;;;;;2095532;28;19959;-56
2022/02/18 03:43:36;;;;;;;;;;;;;;;;;;2090734;28;19925;-48
2022/02/18 03:44:37;;;;;;;;;;;;;;;;;;2090569;28;20309;-47
2022/02/18 03:45:38;;;;;;;;;;;;;;;;;;2094602;28;19932;-46
2022/02/18 03:46:39;;;;;;;;;;;;;;;;;;2098733;28;20019;-47
2022/02/18 03:47:40;;;;;;;;;;;;;;;;;;2098500;28;19924;-47
2022/02/18 03:48:41;;;;;;;;;;;;;;;;;;2096998;28;20424;-48
2022/02/18 03:49:42;;;;;;;;;;;;;;;;;;2098873;28;19964;-47
2022/02/18 03:50:42;;;;;;;;;;;;;;;;;;2097973;28;20377;-48
2022/02/18 03:51:43;;;;;;;;;;;;;;;;;;2091300;28;19924;-47
2022/02/18 03:52:44;;;;;;;;;;;;;;;;;;2090517;28;19947;-47
2022/02/18 03:53:49;;;;;;;;;;;;;;;;;;2092700;28;19957;-49
2022/02/18 03:54:50;;;;;;;;;;;;;;;;;;2097637;28;19970;-48
2022/02/18 03:55:51;;;;;;;;;;;;;;;;;;2098806;28;20015;-46
2022/02/18 03:56:52;;;;;;;;;;;;;;;;;;2096691;28;19936;-49
2022/02/18 03:57:53;;;;;;;;;;;;;;;;;;2098726;28;20038;-48
2022/02/18 03:58:54;;;;;;;;;;;;;;;;;;2098973;28;19909;-57
2022/02/18 03:59:54;;;;;;;;;;;;;;;;;;2095115;28;19928;-56
2022/02/18 04:00:55;;;;;;;;;;;;;;;;;;2098543;28;19931;-56
2022/02/18 04:01:56;;;;;;;;;;;;;;;;;;2096678;28;19939;-57
2022/02/18 04:02:57;;;;;;;;;;;;;;;;;;2097266;28;20409;-57
2022/02/18 04:03:58;;;;;;;;;;;;;;;;;;2098724;28;19925;-57
2022/02/18 04:04:59;;;;;;;;;;;;;;;;;;2097515;28;19972;-49
2022/02/18 04:05:59;;;;;;;;;;;;;;;;;;2097037;28;19929;-48
2022/02/18 04:07:00;;;;;;;;;;;;;;;;;;2098720;28;20019;-47
2022/02/18 04:08:02;;;;;;;;;;;;;;;;;;2096784;28;20003;-57
2022/02/18 04:09:04;;;;;;;;;;;;;;;;;;2099071;28;20024;-47
2022/02/18 04:10:04;;;;;;;;;;;;;;;;;;2098921;28;20385;-47
2022/02/18 04:11:05;;;;;;;;;;;;;;;;;;2095107;28;20024;-47
2022/02/18 04:12:06;;;;;;;;;;;;;;;;;;2090723;28;19925;-47
2022/02/18 04:13:07;;;;;;;;;;;;;;;;;;2090329;28;20365;-48
2022/02/18 04:14:08;;;;;;;;;;;;;;;;;;2095808;28;19939;-48
2022/02/18 04:16:28;;;;;;;;;;;;;;;;;;2096568;28;20086;-46
2022/02/18 04:17:29;;;;;;;;;;;;;;;;;;2097695;28;20011;-55
2022/02/18 04:18:30;;;;;;;;;;;;;;;;;;2098745;28;19932;-56
2022/02/18 04:19:31;;;;;;;;;;;;;;;;;;2096486;28;19940;-57
2022/02/18 04:20:52;;;;;;;;;;;;;;;;;;2098885;28;19925;-46
2022/02/18 04:22:03;;;;;;;;;;;;;;;;;;2095400;28;19939;-47
2022/02/18 04:23:04;;;;;;;;;;;;;;;;;;2097690;28;19924;-48
2022/02/18 04:24:05;;;;;;;;;;;;;;;;;;2098704;28;19994;-46
2022/02/18 04:25:07;;;;;;;;;;;;;;;;;;2096479;28;20386;-46
2022/02/18 04:26:07;;;;;;;;;;;;;;;;;;2090377;28;19979;-56
2022/02/18 04:27:08;;;;;;;;;;;;;;;;;;2090392;28;19932;-57
2022/02/18 04:28:09;;;;;;;;;;;;;;;;;;2095690;28;20312;-57
2022/02/18 04:29:11;;;;;;;;;;;;;;;;;;2098792;28;19978;-46
2022/02/18 04:30:12;;;;;;;;;;;;;;;;;;2098200;28;20011;-50
2022/02/18 04:31:13;;;;;;;;;;;;;;;;;;2096963;28;19934;-47
2022/02/18 04:32:14;;;;;;;;;;;;;;;;;;2098684;28;19924;-49
2022/02/18 04:33:15;;;;;;;;;;;;;;;;;;2095608;28;20043;-47
2022/02/18 04:34:16;;;;;;;;;;;;;;;;;;2097278;28;20011;-49
2022/02/18 04:35:17;;;;;;;;;;;;;;;;;;2098472;28;19925;-47
2022/02/18 04:36:18;;;;;;;;;;;;;;;;;;2095532;28;19972;-46
2022/02/18 04:37:18;;;;;;;;;;;;;;;;;;2098268;28;19925;-49
2022/02/18 04:38:19;;;;;;;;;;;;;;;;;;2098742;28;19924;-49
2022/02/18 04:39:21;;;;;;;;;;;;;;;;;;2096262;28;19978;-48
2022/02/18 04:40:22;;;;;;;;;;;;;;;;;;2098558;28;20003;-50
2022/02/18 04:41:23;;;;;;;;;;;;;;;;;;2098547;28;19951;-51
2022/02/18 04:42:24;;;;;;;;;;;;;;;;;;2096350;28;19932;-49
2022/02/18 04:43:24;;;;;;;;;;;;;;;;;;2098795;28;20320;-59
2022/02/18 04:44:25;;;;;;;;;;;;;;;;;;2096690;28;19999;-49
2022/02/18 04:45:26;;;;;;;;;;;;;;;;;;2096945;28;20369;-49
2022/02/18 04:46:27;;;;;;;;;;;;;;;;;;2098496;28;19925;-49
2022/02/18 04:47:28;;;;;;;;;;;;;;;;;;2095845;28;20282;-49
2022/02/18 04:48:29;;;;;;;;;;;;;;;;;;2096946;28;20054;-48
2022/02/18 04:49:29;;;;;;;;;;;;;;;;;;2098727;28;19924;-58
2022/02/18 04:50:45;;;;;;;;;;;;;;;;;;2093965;28;19924;-58
2022/02/18 04:52:06;;;;;;;;;;;;;;;;;;2098385;28;19931;-57
2022/02/18 04:53:07;;;;;;;;;;;;;;;;;;2097635;28;19928;-55
2022/02/18 04:54:07;;;;;;;;;;;;;;;;;;2091347;28;19925;-56
2022/02/18 04:55:08;;;;;;;;;;;;;;;;;;2090300;28;19953;-57
2022/02/18 04:56:09;;;;;;;;;;;;;;;;;;2092646;28;19925;-56
2022/02/18 04:57:10;;;;;;;;;;;;;;;;;;2098190;28;20015;-59
2022/02/18 04:58:11;;;;;;;;;;;;;;;;;;2098423;28;20054;-58
2022/02/18 04:59:12;;;;;;;;;;;;;;;;;;2096372;28;19981;-57
2022/02/18 05:00:13;;;;;;;;;;;;;;;;;;2098271;28;19962;-56
2022/02/18 05:01:16;;;;;;;;;;;;;;;;;;2098582;28;19924;-57
2022/02/18 05:02:16;;;;;;;;;;;;;;;;;;2095514;28;20023;-55
2022/02/18 05:03:17;;;;;;;;;;;;;;;;;;2098805;28;20327;-56
2022/02/18 05:04:18;;;;;;;;;;;;;;;;;;2096014;28;19924;-57
2022/02/18 05:05:19;;;;;;;;;;;;;;;;;;2096147;28;19925;-57
2022/02/18 05:06:20;;;;;;;;;;;;;;;;;;2098412;28;19924;-56
2022/02/18 05:07:22;;;;;;;;;;;;;;;;;;2094883;28;19964;-57
2022/02/18 05:08:22;;;;;;;;;;;;;;;;;;2098106;28;20444;-56
2022/02/18 05:09:23;;;;;;;;;;;;;;;;;;2098344;28;19935;-56
2022/02/18 05:10:24;;;;;;;;;;;;;;;;;;2094972;28;19929;-56
2022/02/18 05:11:25;;;;;;;;;;;;;;;;;;2098131;28;19931;-54
2022/02/18 05:12:26;;;;;;;;;;;;;;;;;;2098178;28;20102;-60
2022/02/18 05:13:27;;;;;;;;;;;;;;;;;;2093800;28;19930;-56
2022/02/18 05:14:28;;;;;;;;;;;;;;;;;;2098688;28;19924;-57
2022/02/18 05:15:29;;;;;;;;;;;;;;;;;;2097748;28;19928;-55
2022/02/18 05:16:30;;;;;;;;;;;;;;;;;;2096316;28;19929;-56
2022/02/18 05:17:31;;;;;;;;;;;;;;;;;;2098513;28;19936;-48
2022/02/18 05:18:32;;;;;;;;;;;;;;;;;;2097647;28;19925;-56
2022/02/18 05:19:32;;;;;;;;;;;;;;;;;;2095633;28;20453;-56
2022/02/18 05:20:33;;;;;;;;;;;;;;;;;;2098535;28;19955;-56
2022/02/18 05:21:34;;;;;;;;;;;;;;;;;;2097612;28;19960;-48
2022/02/18 05:22:35;;;;;;;;;;;;;;;;;;2090417;28;20378;-48
2022/02/18 05:23:36;;;;;;;;;;;;;;;;;;2089936;28;20024;-48
2022/02/18 05:24:37;;;;;;;;;;;;;;;;;;2091560;28;20003;-48
2022/02/18 05:25:38;;;;;;;;;;;;;;;;;;2090166;28;20015;-48
2022/02/18 05:26:39;;;;;;;;;;;;;;;;;;2089985;28;19924;-47
2022/02/18 05:27:40;;;;;;;;;;;;;;;;;;2095168;28;19933;-48
2022/02/18 05:28:41;;;;;;;;;;;;;;;;;;2098362;28;19928;-47
2022/02/18 05:29:41;;;;;;;;;;;;;;;;;;2096775;28;20293;-49
2022/02/18 05:30:42;;;;;;;;;;;;;;;;;;2095929;28;19929;-48
2022/02/18 05:31:43;;;;;;;;;;;;;;;;;;2098229;28;19929;-50
2022/02/18 05:32:44;;;;;;;;;;;;;;;;;;2095967;28;19928;-48
2022/02/18 05:33:45;;;;;;;;;;;;;;;;;;2096901;28;19960;-49
2022/02/18 05:34:46;;;;;;;;;;;;;;;;;;2098456;28;20376;-56
2022/02/18 05:35:47;;;;;;;;;;;;;;;;;;2097215;28;19924;-54
2022/02/18 05:36:48;;;;;;;;;;;;;;;;;;2090075;28;19925;-51
2022/02/18 05:37:48;;;;;;;;;;;;;;;;;;2089765;28;19925;-51
2022/02/18 05:38:49;;;;;;;;;;;;;;;;;;2094095;28;20003;-49
2022/02/18 05:39:50;;;;;;;;;;;;;;;;;;2098082;28;20007;-50
2022/02/18 05:40:51;;;;;;;;;;;;;;;;;;2097997;28;19963;-49
2022/02/18 05:41:52;;;;;;;;;;;;;;;;;;2096072;28;19964;-50
2022/02/18 05:42:53;;;;;;;;;;;;;;;;;;2098210;28;19951;-48
2022/02/18 05:43:54;;;;;;;;;;;;;;;;;;2096692;28;20362;-55
2022/02/18 05:44:55;;;;;;;;;;;;;;;;;;2095228;28;19924;-56
2022/02/18 05:45:55;;;;;;;;;;;;;;;;;;2098004;28;19978;-55
2022/02/18 05:46:56;;;;;;;;;;;;;;;;;;2094787;28;19982;-55
2022/02/18 05:47:57;;;;;;;;;;;;;;;;;;2096757;28;20441;-49
2022/02/18 05:48:58;;;;;;;;;;;;;;;;;;2098220;28;19925;-48
2022/02/18 05:49:59;;;;;;;;;;;;;;;;;;2094653;28;19924;-49
2022/02/18 05:51:01;;;;;;;;;;;;;;;;;;2096910;28;19982;-48
2022/02/18 05:52:02;;;;;;;;;;;;;;;;;;2098064;28;19967;-49
2022/02/18 05:53:03;;;;;;;;;;;;;;;;;;2095828;28;20004;-49
2022/02/18 05:54:04;;;;;;;;;;;;;;;;;;2098201;28;20219;-48
2022/02/18 05:55:05;;;;;;;;;;;;;;;;;;2097950;28;19928;-48
2022/02/18 05:56:06;;;;;;;;;;;;;;;;;;2094082;28;19924;-48
2022/02/18 05:57:07;;;;;;;;;;;;;;;;;;2097916;28;20285;-47
2022/02/18 05:58:08;;;;;;;;;;;;;;;;;;2097496;28;20003;-49
2022/02/18 05:59:10;;;;;;;;;;;;;;;;;;2096495;28;20007;-47
2022/02/18 06:00:11;;;;;;;;;;;;;;;;;;2098131;28;19932;-47
2022/02/18 06:01:16;;;;;;;;;;;;;;;;;;2095928;28;19947;-49
2022/02/18 06:02:17;;;;;;;;;;;;;;;;;;2097994;28;20015;-56
2022/02/18 06:03:21;;;;;;;;;;;;;;;;;;2098117;28;19970;-48
2022/02/18 06:04:21;;;;;;;;;;;;;;;;;;2095916;28;19932;-48
2022/02/18 06:05:23;;;;;;;;;;;;;;;;;;2097973;28;19932;-48
2022/02/18 06:06:23;;;;;;;;;;;;;;;;;;2097850;28;19990;-49
2022/02/18 06:07:24;;;;;;;;;;;;;;;;;;2094670;28;19928;-49
2022/02/18 06:08:25;;;;;;;;;;;;;;;;;;2097895;28;19931;-49
2022/02/18 06:09:26;;;;;;;;;;;;;;;;;;2097197;28;19928;-48
2022/02/18 06:10:27;;;;;;;;;;;;;;;;;;2095320;28;19924;-47
2022/02/18 06:11:28;;;;;;;;;;;;;;;;;;2098095;28;20258;-48
2022/02/18 06:12:29;;;;;;;;;;;;;;;;;;2096386;28;19925;-48
2022/02/18 06:13:30;;;;;;;;;;;;;;;;;;2089689;28;20338;-51
2022/02/18 06:14:31;;;;;;;;;;;;;;;;;;2089790;28;20015;-48
2022/02/18 06:15:32;;;;;;;;;;;;;;;;;;2093381;28;19925;-48
2022/02/18 06:16:33;;;;;;;;;;;;;;;;;;2097766;28;20030;-48
2022/02/18 06:17:34;;;;;;;;;;;;;;;;;;2097351;28;19925;-49
2022/02/18 06:18:34;;;;;;;;;;;;;;;;;;2096163;28;19924;-51
2022/02/18 06:19:35;;;;;;;;;;;;;;;;;;2098075;28;19928;-56
2022/02/18 06:20:36;;;;;;;;;;;;;;;;;;2097123;28;19934;-57
2022/02/18 06:21:40;;;;;;;;;;;;;;;;;;2095443;28;19932;-48
2022/02/18 06:22:41;;;;;;;;;;;;;;;;;;2097830;28;19933;-48
2022/02/18 06:23:42;;;;;;;;;;;;;;;;;;2094537;28;19924;-49
2022/02/18 06:24:42;;;;;;;;;;;;;;;;;;2097904;28;19928;-56
2022/02/18 06:25:43;;;;;;;;;;;;;;;;;;2097741;28;20289;-55
2022/02/18 06:26:45;;;;;;;;;;;;;;;;;;2093255;28;20289;-56
2022/02/18 06:27:46;;;;;;;;;;;;;;;;;;2097771;28;20387;-56
2022/02/18 06:28:47;;;;;;;;;;;;;;;;;;2098450;28;19924;-56
2022/02/18 06:29:49;;;;;;;;;;;;;;;;;;2095560;28;20305;-57
2022/02/18 06:30:50;;;;;;;;;;;;;;;;;;2097903;28;20011;-55
2022/02/18 06:31:50;;;;;;;;;;;;;;;;;;2095805;28;20447;-56
2022/02/18 06:32:52;;;;;;;;;;;;;;;;;;2095176;28;19936;-56
2022/02/18 06:33:57;;;;;;;;;;;;;;;;;;2097988;28;20461;-55
2022/02/18 06:34:58;;;;;;;;;;;;;;;;;;2095521;28;19999;-55
2022/02/18 06:35:59;;;;;;;;;;;;;;;;;;2097284;28;19967;-50
2022/02/18 06:36:59;;;;;;;;;;;;;;;;;;2097892;28;19924;-50
2022/02/18 06:38:01;;;;;;;;;;;;;;;;;;2094246;28;20369;-49
2022/02/18 06:39:01;;;;;;;;;;;;;;;;;;2097878;28;19959;-49
2022/02/18 06:40:03;;;;;;;;;;;;;;;;;;2097779;28;20187;-49
2022/02/18 06:41:03;;;;;;;;;;;;;;;;;;2095856;28;20013;-55
2022/02/18 06:42:04;;;;;;;;;;;;;;;;;;2097726;28;19997;-57
2022/02/18 06:43:05;;;;;;;;;;;;;;;;;;2097408;28;19932;-57
2022/02/18 06:44:09;;;;;;;;;;;;;;;;;;2096070;28;20021;-55
2022/02/18 06:45:10;;;;;;;;;;;;;;;;;;2097708;28;20023;-56
2022/02/18 06:46:11;;;;;;;;;;;;;;;;;;2095253;28;19931;-56
2022/02/18 06:47:12;;;;;;;;;;;;;;;;;;2095831;28;19928;-57
2022/02/18 06:48:13;;;;;;;;;;;;;;;;;;2097802;28;19928;-56
2022/02/18 06:49:14;;;;;;;;;;;;;;;;;;2096506;28;19931;-55
2022/02/18 06:50:16;;;;;;;;;;;;;;;;;;2096729;28;19928;-54
2022/02/18 06:51:17;;;;;;;;;;;;;;;;;;2098072;28;19992;-57
2022/02/18 06:52:18;;;;;;;;;;;;;;;;;;2095535;28;19925;-56
2022/02/18 06:53:19;;;;;;;;;;;;;;;;;;2097880;28;20294;-55
2022/02/18 06:54:20;;;;;;;;;;;;;;;;;;2097267;28;19932;-55
2022/02/18 06:55:28;;;;;;;;;;;;;;;;;;2094568;28;19930;-55
2022/02/18 06:56:29;;;;;;;;;;;;;;;;;;2098459;28;19931;-48
2022/02/18 06:57:30;;;;;;;;;;;;;;;;;;2096918;28;20387;-50
2022/02/18 06:58:31;;;;;;;;;;;;;;;;;;2098035;28;19935;-49
2022/02/18 06:59:32;;;;;;;;;;;;;;;;;;2099255;28;19931;-49